To NAV CANADA Home Page Login to a new session Search on AWWS site Feedback and Comments Disclaimer Vers la page française équivalente Tips FAQ What's new on the site To the Forecasts and Observations / NOTAM section To "File a Flight Plan" website Publications and other links Update of the User's profile FIC Telephone Numbers My Weather Data Folder Route Weather Data Regional Weather Data Local Weather Data To the Forecasts and Observations / NOTAM section
Request Generated 08/31/2015 at 00:28:23 UTC . Weather information available at that time is displayed.

METAR/TAF

CALGARY/SPRINGBANK/AB    (show WxCam)

SPECI CYBW 310026Z AUTO 29028G38KT 7SM SCT090 BKN120 14/03 A2964 RMK
SLP045 DENSITY ALT 5000FT=
SPECI CYBW 310024Z AUTO 29027G40KT 4SM HZ SCT090 BKN110 15/04 A2964
RMK SLP046 DENSITY ALT 5100FT=
SPECI CYBW 310017Z AUTO 28030G40KT 2 1/2SM HZ SCT080 OVC099 15/04
A2963 RMK SLP042 DENSITY ALT 5200FT=
SPECI CYBW 310014Z AUTO 28031G39KT 4SM HZ SCT080 OVC097 16/04 A2963
RMK SLP040 DENSITY ALT 5300FT=
SPECI CYBW 310013Z AUTO 28028G39KT 7SM SCT080 OVC095 17/04 A2963 RMK
SLP040 DENSITY ALT 5300FT=
METAR CYBW 310000Z AUTO 28018G25KT 9SM OVC080 17/03 A2962 RMK SLP036
DENSITY ALT 5400FT=
SPECI CYBW 302310Z AUTO 29019KT 9SM FEW085 SCT230 19/02 A2961 RMK
SLP023 DENSITY ALT 5600FT=
METAR CYBW 302300Z AUTO 29009KT 250V320 9SM CLR 20/03 A2961 RMK
SLP021 DENSITY ALT 5700FT=
METAR CYBW 302200Z AUTO 30015G21KT 9SM SCT090 SCT110 SCT180 21/03
A2960 RMK SLP019 DENSITY ALT 5800FT=

TAF AMD CYBW 310023Z 3100/3104 29030G40KT P6SM SCT080 TEMPO 3100/3103
2SM HZ
BECMG 3101/3103 29012G22KT
RMK FCST BASED ON AUTO OBS. NXT FCST WILL BE ISSUED AT 311145Z=
Your time UTC time
Weather data provided by Environment Canada and NAV CANADA